sensor_id;sensor_type;location;lat;lon;timestamp;temperature;humidity
18412;DHT22;27097;51.738;19.472;2023-05-07T00:01:50;21.00;92.20
18412;DHT22;27097;51.738;19.472;2023-05-07T00:04:17;21.00;92.20
18412;DHT22;27097;51.738;19.472;2023-05-07T00:06:44;21.00;92.20
18412;DHT22;27097;51.738;19.472;2023-05-07T00:09:11;21.00;92.00
18412;DHT22;27097;51.738;19.472;2023-05-07T00:11:38;21.00;92.00
18412;DHT22;27097;51.738;19.472;2023-05-07T00:14:05;21.00;91.70
18412;DHT22;27097;51.738;19.472;2023-05-07T00:16:34;21.00;91.50
18412;DHT22;27097;51.738;19.472;2023-05-07T00:19:01;21.00;91.60
18412;DHT22;27097;51.738;19.472;2023-05-07T00:21:27;21.00;91.60
18412;DHT22;27097;51.738;19.472;2023-05-07T00:23:54;21.00;91.40
18412;DHT22;27097;51.738;19.472;2023-05-07T00:26:22;21.00;91.10
18412;DHT22;27097;51.738;19.472;2023-05-07T00:28:48;21.00;91.00
18412;DHT22;27097;51.738;19.472;2023-05-07T00:31:15;21.00;91.20
18412;DHT22;27097;51.738;19.472;2023-05-07T00:33:44;21.00;91.20
18412;DHT22;27097;51.738;19.472;2023-05-07T00:36:11;21.00;91.20
18412;DHT22;27097;51.738;19.472;2023-05-07T00:38:37;21.00;91.20
18412;DHT22;27097;51.738;19.472;2023-05-07T00:41:05;21.00;91.30
18412;DHT22;27097;51.738;19.472;2023-05-07T00:43:32;21.00;91.50
18412;DHT22;27097;51.738;19.472;2023-05-07T00:45:59;21.00;91.40
18412;DHT22;27097;51.738;19.472;2023-05-07T00:48:26;21.00;91.50
18412;DHT22;27097;51.738;19.472;2023-05-07T00:50:54;21.00;91.60
18412;DHT22;27097;51.738;19.472;2023-05-07T00:53:21;21.00;91.50
18412;DHT22;27097;51.738;19.472;2023-05-07T00:55:48;21.00;91.50
18412;DHT22;27097;51.738;19.472;2023-05-07T00:58:16;21.00;91.70
18412;DHT22;27097;51.738;19.472;2023-05-07T01:00:42;21.00;91.70
18412;DHT22;27097;51.738;19.472;2023-05-07T01:03:09;21.00;91.80
18412;DHT22;27097;51.738;19.472;2023-05-07T01:05:36;21.00;92.00
18412;DHT22;27097;51.738;19.472;2023-05-07T01:08:05;21.00;91.70
18412;DHT22;27097;51.738;19.472;2023-05-07T01:10:32;21.00;91.80
18412;DHT22;27097;51.738;19.472;2023-05-07T01:12:59;21.00;91.90
18412;DHT22;27097;51.738;19.472;2023-05-07T01:15:26;21.00;91.90
18412;DHT22;27097;51.738;19.472;2023-05-07T01:17:54;21.00;91.80
18412;DHT22;27097;51.738;19.472;2023-05-07T01:20:22;21.00;91.80
18412;DHT22;27097;51.738;19.472;2023-05-07T01:22:51;21.00;91.90
18412;DHT22;27097;51.738;19.472;2023-05-07T01:25:19;21.00;91.90
18412;DHT22;27097;51.738;19.472;2023-05-07T01:27:46;21.00;91.90
18412;DHT22;27097;51.738;19.472;2023-05-07T01:30:13;21.00;91.70
18412;DHT22;27097;51.738;19.472;2023-05-07T01:32:51;21.00;91.80
18412;DHT22;27097;51.738;19.472;2023-05-07T01:35:20;21.00;91.60
18412;DHT22;27097;51.738;19.472;2023-05-07T01:37:49;21.00;91.70
18412;DHT22;27097;51.738;19.472;2023-05-07T01:43:30;21.00;91.70
18412;DHT22;27097;51.738;19.472;2023-05-07T01:46:07;21.00;91.70
18412;DHT22;27097;51.738;19.472;2023-05-07T01:48:35;21.00;91.80
18412;DHT22;27097;51.738;19.472;2023-05-07T01:51:09;21.00;91.80
18412;DHT22;27097;51.738;19.472;2023-05-07T01:53:36;21.00;91.80
18412;DHT22;27097;51.738;19.472;2023-05-07T01:56:05;21.00;91.60
18412;DHT22;27097;51.738;19.472;2023-05-07T01:58:32;21.00;91.80
18412;DHT22;27097;51.738;19.472;2023-05-07T02:00:59;21.00;91.80
18412;DHT22;27097;51.738;19.472;2023-05-07T02:03:26;21.00;91.80
18412;DHT22;27097;51.738;19.472;2023-05-07T02:05:53;21.00;91.80
18412;DHT22;27097;51.738;19.472;2023-05-07T02:08:20;21.00;91.80
18412;DHT22;27097;51.738;19.472;2023-05-07T02:10:47;21.00;91.80
18412;DHT22;27097;51.738;19.472;2023-05-07T02:13:15;21.00;91.80
18412;DHT22;27097;51.738;19.472;2023-05-07T02:15:42;21.00;91.80
18412;DHT22;27097;51.738;19.472;2023-05-07T02:18:11;21.00;91.80
18412;DHT22;27097;51.738;19.472;2023-05-07T02:20:38;21.00;91.80
18412;DHT22;27097;51.738;19.472;2023-05-07T02:23:05;21.00;91.70
18412;DHT22;27097;51.738;19.472;2023-05-07T02:25:32;21.00;91.70
18412;DHT22;27097;51.738;19.472;2023-05-07T02:27:59;21.00;91.80
18412;DHT22;27097;51.738;19.472;2023-05-07T02:30:27;21.00;91.70
18412;DHT22;27097;51.738;19.472;2023-05-07T02:32:54;21.00;91.70
18412;DHT22;27097;51.738;19.472;2023-05-07T02:35:21;21.00;91.70
18412;DHT22;27097;51.738;19.472;2023-05-07T02:37:47;21.00;91.60
18412;DHT22;27097;51.738;19.472;2023-05-07T02:40:14;21.00;91.60
18412;DHT22;27097;51.738;19.472;2023-05-07T02:42:41;21.00;91.70
18412;DHT22;27097;51.738;19.472;2023-05-07T02:45:09;21.00;91.60
18412;DHT22;27097;51.738;19.472;2023-05-07T02:47:37;21.00;91.70
18412;DHT22;27097;51.738;19.472;2023-05-07T02:50:05;21.00;91.70
18412;DHT22;27097;51.738;19.472;2023-05-07T02:52:32;21.00;91.70
18412;DHT22;27097;51.738;19.472;2023-05-07T02:54:59;21.00;91.60
18412;DHT22;27097;51.738;19.472;2023-05-07T02:57:26;21.00;91.70
18412;DHT22;27097;51.738;19.472;2023-05-07T02:59:53;21.00;91.70
18412;DHT22;27097;51.738;19.472;2023-05-07T03:02:20;21.00;91.80
18412;DHT22;27097;51.738;19.472;2023-05-07T03:04:48;21.00;91.80
18412;DHT22;27097;51.738;19.472;2023-05-07T03:07:15;21.00;91.80
18412;DHT22;27097;51.738;19.472;2023-05-07T03:09:42;21.00;91.80
18412;DHT22;27097;51.738;19.472;2023-05-07T03:12:09;21.00;91.70
18412;DHT22;27097;51.738;19.472;2023-05-07T03:14:35;21.00;91.70
18412;DHT22;27097;51.738;19.472;2023-05-07T03:17:02;21.00;91.80
18412;DHT22;27097;51.738;19.472;2023-05-07T03:19:29;21.00;91.80
18412;DHT22;27097;51.738;19.472;2023-05-07T03:21:58;21.00;91.70
18412;DHT22;27097;51.738;19.472;2023-05-07T03:24:25;21.00;91.70
18412;DHT22;27097;51.738;19.472;2023-05-07T03:26:52;21.00;91.70
18412;DHT22;27097;51.738;19.472;2023-05-07T03:29:19;21.00;91.70
18412;DHT22;27097;51.738;19.472;2023-05-07T03:31:46;21.00;91.80
18412;DHT22;27097;51.738;19.472;2023-05-07T03:34:12;21.00;91.80
18412;DHT22;27097;51.738;19.472;2023-05-07T03:36:39;21.00;91.70
18412;DHT22;27097;51.738;19.472;2023-05-07T03:39:08;21.00;91.60
18412;DHT22;27097;51.738;19.472;2023-05-07T03:41:35;21.00;91.70
18412;DHT22;27097;51.738;19.472;2023-05-07T03:44:02;21.00;91.90
18412;DHT22;27097;51.738;19.472;2023-05-07T03:46:28;21.00;91.60
18412;DHT22;27097;51.738;19.472;2023-05-07T03:48:55;21.00;91.70
18412;DHT22;27097;51.738;19.472;2023-05-07T03:51:22;21.00;91.70
18412;DHT22;27097;51.738;19.472;2023-05-07T03:53:49;21.00;91.70
18412;DHT22;27097;51.738;19.472;2023-05-07T03:56:19;21.00;91.60
18412;DHT22;27097;51.738;19.472;2023-05-07T03:58:47;21.00;91.70
18412;DHT22;27097;51.738;19.472;2023-05-07T04:01:14;21.00;91.70
18412;DHT22;27097;51.738;19.472;2023-05-07T04:03:41;20.90;91.70
18412;DHT22;27097;51.738;19.472;2023-05-07T04:06:07;21.00;91.60
18412;DHT22;27097;51.738;19.472;2023-05-07T04:08:34;21.00;91.70
18412;DHT22;27097;51.738;19.472;2023-05-07T04:11:01;20.90;91.70
18412;DHT22;27097;51.738;19.472;2023-05-07T04:13:30;20.90;91.80
18412;DHT22;27097;51.738;19.472;2023-05-07T04:15:56;21.00;91.70
18412;DHT22;27097;51.738;19.472;2023-05-07T04:18:23;20.90;91.70
18412;DHT22;27097;51.738;19.472;2023-05-07T04:20:50;21.00;91.70
18412;DHT22;27097;51.738;19.472;2023-05-07T04:23:17;21.00;91.70
18412;DHT22;27097;51.738;19.472;2023-05-07T04:25:44;20.90;91.60
18412;DHT22;27097;51.738;19.472;2023-05-07T04:28:11;20.90;91.70
18412;DHT22;27097;51.738;19.472;2023-05-07T04:30:40;20.90;91.60
18412;DHT22;27097;51.738;19.472;2023-05-07T04:33:07;20.90;91.60
18412;DHT22;27097;51.738;19.472;2023-05-07T04:39:08;20.90;91.60
18412;DHT22;27097;51.738;19.472;2023-05-07T04:41:38;20.90;91.60
18412;DHT22;27097;51.738;19.472;2023-05-07T04:44:07;20.90;91.50
18412;DHT22;27097;51.738;19.472;2023-05-07T04:46:36;20.90;91.50
18412;DHT22;27097;51.738;19.472;2023-05-07T04:49:02;20.90;91.60
18412;DHT22;27097;51.738;19.472;2023-05-07T04:51:29;20.90;91.40
18412;DHT22;27097;51.738;19.472;2023-05-07T04:53:58;20.90;91.60
18412;DHT22;27097;51.738;19.472;2023-05-07T04:56:27;21.00;91.50
18412;DHT22;27097;51.738;19.472;2023-05-07T04:58:54;21.00;91.50
18412;DHT22;27097;51.738;19.472;2023-05-07T05:01:21;20.90;91.70
18412;DHT22;27097;51.738;19.472;2023-05-07T05:03:49;20.90;91.30
18412;DHT22;27097;51.738;19.472;2023-05-07T05:06:16;20.90;91.40
18412;DHT22;27097;51.738;19.472;2023-05-07T05:08:43;20.90;91.30
18412;DHT22;27097;51.738;19.472;2023-05-07T05:11:10;20.90;91.20
18412;DHT22;27097;51.738;19.472;2023-05-07T05:13:37;20.90;91.30
18412;DHT22;27097;51.738;19.472;2023-05-07T05:16:04;20.90;91.40
18412;DHT22;27097;51.738;19.472;2023-05-07T05:18:31;20.90;91.40
18412;DHT22;27097;51.738;19.472;2023-05-07T05:21:00;20.90;91.40
18412;DHT22;27097;51.738;19.472;2023-05-07T05:23:27;20.90;91.40
18412;DHT22;27097;51.738;19.472;2023-05-07T05:25:55;21.00;91.60
18412;DHT22;27097;51.738;19.472;2023-05-07T05:28:23;21.00;91.50
18412;DHT22;27097;51.738;19.472;2023-05-07T05:30:49;21.00;91.50
18412;DHT22;27097;51.738;19.472;2023-05-07T05:33:16;21.00;91.40
18412;DHT22;27097;51.738;19.472;2023-05-07T05:35:43;20.90;91.30
18412;DHT22;27097;51.738;19.472;2023-05-07T05:38:11;20.90;91.30
18412;DHT22;27097;51.738;19.472;2023-05-07T05:40:38;21.00;91.30
18412;DHT22;27097;51.738;19.472;2023-05-07T05:43:05;20.90;91.20
18412;DHT22;27097;51.738;19.472;2023-05-07T05:45:32;20.90;91.20
18412;DHT22;27097;51.738;19.472;2023-05-07T05:47:59;21.00;91.10
18412;DHT22;27097;51.738;19.472;2023-05-07T05:50:26;21.00;91.10
18412;DHT22;27097;51.738;19.472;2023-05-07T05:52:53;21.00;91.20
18412;DHT22;27097;51.738;19.472;2023-05-07T05:55:22;20.90;91.00
18412;DHT22;27097;51.738;19.472;2023-05-07T05:57:48;20.90;91.20
18412;DHT22;27097;51.738;19.472;2023-05-07T06:00:16;21.00;91.20
18412;DHT22;27097;51.738;19.472;2023-05-07T06:02:43;21.00;91.20
18412;DHT22;27097;51.738;19.472;2023-05-07T06:05:10;20.90;91.20
18412;DHT22;27097;51.738;19.472;2023-05-07T06:07:37;21.00;91.10
18412;DHT22;27097;51.738;19.472;2023-05-07T06:10:04;21.00;91.20
18412;DHT22;27097;51.738;19.472;2023-05-07T06:12:33;21.00;91.10
18412;DHT22;27097;51.738;19.472;2023-05-07T06:15:00;21.00;91.10
18412;DHT22;27097;51.738;19.472;2023-05-07T06:17:27;21.00;91.10
18412;DHT22;27097;51.738;19.472;2023-05-07T06:20:00;21.00;91.00
18412;DHT22;27097;51.738;19.472;2023-05-07T06:22:27;20.90;88.30
18412;DHT22;27097;51.738;19.472;2023-05-07T06:24:54;20.90;90.00
18412;DHT22;27097;51.738;19.472;2023-05-07T06:27:58;20.90;89.50
18412;DHT22;27097;51.738;19.472;2023-05-07T06:30:37;20.90;89.80
18412;DHT22;27097;51.738;19.472;2023-05-07T06:33:04;20.90;89.40
18412;DHT22;27097;51.738;19.472;2023-05-07T06:41:15;20.90;88.00
18412;DHT22;27097;51.738;19.472;2023-05-07T06:43:52;20.90;87.40
18412;DHT22;27097;51.738;19.472;2023-05-07T06:46:27;20.90;87.60
18412;DHT22;27097;51.738;19.472;2023-05-07T06:48:54;20.90;87.30
18412;DHT22;27097;51.738;19.472;2023-05-07T06:51:22;20.90;86.20
18412;DHT22;27097;51.738;19.472;2023-05-07T06:53:49;20.90;87.10
18412;DHT22;27097;51.738;19.472;2023-05-07T06:56:15;20.80;84.40
18412;DHT22;27097;51.738;19.472;2023-05-07T06:58:42;20.90;85.40
18412;DHT22;27097;51.738;19.472;2023-05-07T07:01:11;20.90;85.40
18412;DHT22;27097;51.738;19.472;2023-05-07T07:03:37;20.90;83.70
18412;DHT22;27097;51.738;19.472;2023-05-07T07:06:04;20.90;83.60
18412;DHT22;27097;51.738;19.472;2023-05-07T07:08:31;20.80;86.60
18412;DHT22;27097;51.738;19.472;2023-05-07T07:10:58;20.80;87.10
18412;DHT22;27097;51.738;19.472;2023-05-07T07:13:25;20.80;87.00
18412;DHT22;27097;51.738;19.472;2023-05-07T07:15:52;20.90;87.70
18412;DHT22;27097;51.738;19.472;2023-05-07T07:18:21;20.90;88.20
18412;DHT22;27097;51.738;19.472;2023-05-07T07:20:47;20.90;88.50
18412;DHT22;27097;51.738;19.472;2023-05-07T07:23:36;20.90;86.00
18412;DHT22;27097;51.738;19.472;2023-05-07T07:26:13;20.90;84.20
18412;DHT22;27097;51.738;19.472;2023-05-07T07:28:44;20.90;86.10
18412;DHT22;27097;51.738;19.472;2023-05-07T07:31:11;20.90;86.10
18412;DHT22;27097;51.738;19.472;2023-05-07T07:33:45;20.80;82.90
18412;DHT22;27097;51.738;19.472;2023-05-07T07:36:28;20.80;81.20
18412;DHT22;27097;51.738;19.472;2023-05-07T07:39:09;20.80;87.20
18412;DHT22;27097;51.738;19.472;2023-05-07T07:41:36;20.80;87.80
18412;DHT22;27097;51.738;19.472;2023-05-07T07:44:03;20.80;87.80
18412;DHT22;27097;51.738;19.472;2023-05-07T07:46:32;20.90;89.30
18412;DHT22;27097;51.738;19.472;2023-05-07T07:49:04;20.90;90.10
18412;DHT22;27097;51.738;19.472;2023-05-07T07:51:34;20.90;89.50
18412;DHT22;27097;51.738;19.472;2023-05-07T07:54:07;20.90;89.10
18412;DHT22;27097;51.738;19.472;2023-05-07T07:56:34;20.90;90.00
18412;DHT22;27097;51.738;19.472;2023-05-07T07:59:01;20.90;90.20
18412;DHT22;27097;51.738;19.472;2023-05-07T08:01:42;20.90;90.00
18412;DHT22;27097;51.738;19.472;2023-05-07T08:07:09;21.00;90.20
18412;DHT22;27097;51.738;19.472;2023-05-07T08:09:50;21.00;90.60
18412;DHT22;27097;51.738;19.472;2023-05-07T08:12:46;21.00;90.30
18412;DHT22;27097;51.738;19.472;2023-05-07T08:15:21;21.00;90.40
18412;DHT22;27097;51.738;19.472;2023-05-07T08:17:48;21.00;90.10
18412;DHT22;27097;51.738;19.472;2023-05-07T08:20:15;21.00;90.70
18412;DHT22;27097;51.738;19.472;2023-05-07T08:22:43;21.10;89.20
18412;DHT22;27097;51.738;19.472;2023-05-07T08:25:12;21.00;90.60
18412;DHT22;27097;51.738;19.472;2023-05-07T08:27:51;21.00;90.70
18412;DHT22;27097;51.738;19.472;2023-05-07T08:30:19;21.10;90.00
18412;DHT22;27097;51.738;19.472;2023-05-07T08:32:46;21.10;89.10
18412;DHT22;27097;51.738;19.472;2023-05-07T08:35:12;21.00;88.50
18412;DHT22;27097;51.738;19.472;2023-05-07T08:37:40;21.10;89.80
18412;DHT22;27097;51.738;19.472;2023-05-07T08:40:09;21.10;89.00
18412;DHT22;27097;51.738;19.472;2023-05-07T08:42:36;21.10;88.40
18412;DHT22;27097;51.738;19.472;2023-05-07T08:45:12;21.10;88.10
18412;DHT22;27097;51.738;19.472;2023-05-07T08:47:43;21.10;87.10
18412;DHT22;27097;51.738;19.472;2023-05-07T08:50:26;21.10;87.30
18412;DHT22;27097;51.738;19.472;2023-05-07T08:52:53;21.10;87.30
18412;DHT22;27097;51.738;19.472;2023-05-07T08:55:24;21.10;87.00
18412;DHT22;27097;51.738;19.472;2023-05-07T08:57:50;21.10;87.30
18412;DHT22;27097;51.738;19.472;2023-05-07T09:00:18;21.10;86.20
18412;DHT22;27097;51.738;19.472;2023-05-07T09:02:45;21.10;86.70
18412;DHT22;27097;51.738;19.472;2023-05-07T09:05:24;21.10;85.40
18412;DHT22;27097;51.738;19.472;2023-05-07T09:07:51;21.10;84.70
18412;DHT22;27097;51.738;19.472;2023-05-07T09:10:18;21.10;85.20
18412;DHT22;27097;51.738;19.472;2023-05-07T09:12:58;21.10;83.30
18412;DHT22;27097;51.738;19.472;2023-05-07T09:15:28;21.20;82.90
18412;DHT22;27097;51.738;19.472;2023-05-07T09:18:04;21.20;83.00
18412;DHT22;27097;51.738;19.472;2023-05-07T09:20:39;21.10;81.90
18412;DHT22;27097;51.738;19.472;2023-05-07T09:23:06;21.10;80.70
18412;DHT22;27097;51.738;19.472;2023-05-07T09:25:41;21.10;81.90
18412;DHT22;27097;51.738;19.472;2023-05-07T09:28:09;21.10;81.80
18412;DHT22;27097;51.738;19.472;2023-05-07T09:31:01;21.20;82.20
18412;DHT22;27097;51.738;19.472;2023-05-07T09:33:28;21.20;84.40
18412;DHT22;27097;51.738;19.472;2023-05-07T09:35:55;21.20;83.40
18412;DHT22;27097;51.738;19.472;2023-05-07T09:38:22;21.20;82.90
18412;DHT22;27097;51.738;19.472;2023-05-07T09:41:01;21.20;82.90
18412;DHT22;27097;51.738;19.472;2023-05-07T09:43:32;21.20;82.70
18412;DHT22;27097;51.738;19.472;2023-05-07T09:46:02;21.20;83.00
18412;DHT22;27097;51.738;19.472;2023-05-07T09:48:37;21.20;82.50
18412;DHT22;27097;51.738;19.472;2023-05-07T09:51:11;21.20;82.80
18412;DHT22;27097;51.738;19.472;2023-05-07T09:53:43;21.20;82.80
18412;DHT22;27097;51.738;19.472;2023-05-07T09:56:13;21.20;82.90
18412;DHT22;27097;51.738;19.472;2023-05-07T09:58:42;21.20;82.10
18412;DHT22;27097;51.738;19.472;2023-05-07T10:01:11;21.20;82.10
18412;DHT22;27097;51.738;19.472;2023-05-07T10:03:43;21.30;82.00
18412;DHT22;27097;51.738;19.472;2023-05-07T10:08:35;21.40;80.50
18412;DHT22;27097;51.738;19.472;2023-05-07T10:11:06;21.40;79.60
18412;DHT22;27097;51.738;19.472;2023-05-07T10:16:57;21.50;79.30
18412;DHT22;27097;51.738;19.472;2023-05-07T10:22:28;21.50;78.90
18412;DHT22;27097;51.738;19.472;2023-05-07T10:25:02;21.50;79.00
18412;DHT22;27097;51.738;19.472;2023-05-07T10:27:31;21.50;78.40
18412;DHT22;27097;51.738;19.472;2023-05-07T10:30:11;21.60;78.80
18412;DHT22;27097;51.738;19.472;2023-05-07T10:32:46;21.50;79.00
18412;DHT22;27097;51.738;19.472;2023-05-07T10:35:21;21.50;78.70
18412;DHT22;27097;51.738;19.472;2023-05-07T10:37:55;21.50;77.90
18412;DHT22;27097;51.738;19.472;2023-05-07T10:40:22;21.50;78.00
18412;DHT22;27097;51.738;19.472;2023-05-07T10:42:56;21.50;78.90
18412;DHT22;27097;51.738;19.472;2023-05-07T10:45:28;21.50;79.30
18412;DHT22;27097;51.738;19.472;2023-05-07T10:50:32;21.40;80.20
18412;DHT22;27097;51.738;19.472;2023-05-07T11:05:21;21.30;73.20
18412;DHT22;27097;51.738;19.472;2023-05-07T11:07:55;21.30;79.60
18412;DHT22;27097;51.738;19.472;2023-05-07T11:10:22;21.40;79.30
18412;DHT22;27097;51.738;19.472;2023-05-07T11:12:50;21.40;78.50
18412;DHT22;27097;51.738;19.472;2023-05-07T11:15:37;21.40;78.50
18412;DHT22;27097;51.738;19.472;2023-05-07T11:18:04;21.40;78.30
18412;DHT22;27097;51.738;19.472;2023-05-07T11:20:50;21.40;78.30
18412;DHT22;27097;51.738;19.472;2023-05-07T11:26:29;21.40;78.10
18412;DHT22;27097;51.738;19.472;2023-05-07T11:28:57;21.30;77.80
18412;DHT22;27097;51.738;19.472;2023-05-07T11:31:27;21.30;78.00
18412;DHT22;27097;51.738;19.472;2023-05-07T11:33:55;21.30;78.00
18412;DHT22;27097;51.738;19.472;2023-05-07T11:36:23;21.30;77.90
18412;DHT22;27097;51.738;19.472;2023-05-07T11:38:51;21.30;78.10
18412;DHT22;27097;51.738;19.472;2023-05-07T11:41:18;21.30;78.10
18412;DHT22;27097;51.738;19.472;2023-05-07T11:43:58;21.30;78.10
18412;DHT22;27097;51.738;19.472;2023-05-07T11:46:27;21.30;78.00
18412;DHT22;27097;51.738;19.472;2023-05-07T11:48:54;21.30;77.90
18412;DHT22;27097;51.738;19.472;2023-05-07T11:51:22;21.30;78.40
18412;DHT22;27097;51.738;19.472;2023-05-07T11:54:22;21.20;77.80
18412;DHT22;27097;51.738;19.472;2023-05-07T11:56:49;21.20;77.60
18412;DHT22;27097;51.738;19.472;2023-05-07T11:59:26;21.20;77.60
18412;DHT22;27097;51.738;19.472;2023-05-07T12:01:56;21.30;77.30
18412;DHT22;27097;51.738;19.472;2023-05-07T12:04:24;21.30;76.60
18412;DHT22;27097;51.738;19.472;2023-05-07T12:06:53;21.30;76.50
18412;DHT22;27097;51.738;19.472;2023-05-07T12:09:21;21.20;76.60
18412;DHT22;27097;51.738;19.472;2023-05-07T12:11:48;21.20;76.80
18412;DHT22;27097;51.738;19.472;2023-05-07T12:14:15;21.20;76.60
18412;DHT22;27097;51.738;19.472;2023-05-07T12:16:44;21.20;76.80
18412;DHT22;27097;51.738;19.472;2023-05-07T12:19:11;21.20;76.70
18412;DHT22;27097;51.738;19.472;2023-05-07T12:21:39;21.20;76.80
18412;DHT22;27097;51.738;19.472;2023-05-07T12:24:06;21.20;76.90
18412;DHT22;27097;51.738;19.472;2023-05-07T12:26:37;21.20;76.60
18412;DHT22;27097;51.738;19.472;2023-05-07T12:29:04;21.20;76.20
18412;DHT22;27097;51.738;19.472;2023-05-07T12:31:31;21.20;76.00
18412;DHT22;27097;51.738;19.472;2023-05-07T12:34:01;21.20;76.10
18412;DHT22;27097;51.738;19.472;2023-05-07T12:36:36;21.20;76.20
18412;DHT22;27097;51.738;19.472;2023-05-07T12:39:04;21.20;75.90
18412;DHT22;27097;51.738;19.472;2023-05-07T12:41:36;21.20;76.30
18412;DHT22;27097;51.738;19.472;2023-05-07T12:44:04;21.20;76.40
18412;DHT22;27097;51.738;19.472;2023-05-07T12:46:31;21.20;76.00
18412;DHT22;27097;51.738;19.472;2023-05-07T12:48:58;21.20;76.00
18412;DHT22;27097;51.738;19.472;2023-05-07T12:51:27;21.10;76.10
18412;DHT22;27097;51.738;19.472;2023-05-07T12:53:56;21.10;75.60
18412;DHT22;27097;51.738;19.472;2023-05-07T12:56:23;21.10;75.70
18412;DHT22;27097;51.738;19.472;2023-05-07T12:58:50;21.10;75.50
18412;DHT22;27097;51.738;19.472;2023-05-07T13:01:17;21.10;75.10
18412;DHT22;27097;51.738;19.472;2023-05-07T13:03:48;21.10;75.90
18412;DHT22;27097;51.738;19.472;2023-05-07T13:06:15;21.10;75.50
18412;DHT22;27097;51.738;19.472;2023-05-07T13:09:33;21.10;75.10
18412;DHT22;27097;51.738;19.472;2023-05-07T13:12:02;21.10;75.80
18412;DHT22;27097;51.738;19.472;2023-05-07T13:14:29;21.10;75.20
18412;DHT22;27097;51.738;19.472;2023-05-07T13:16:56;21.10;74.80
18412;DHT22;27097;51.738;19.472;2023-05-07T13:19:23;21.10;75.00
18412;DHT22;27097;51.738;19.472;2023-05-07T13:21:50;21.10;75.40
18412;DHT22;27097;51.738;19.472;2023-05-07T13:24:17;21.10;75.30
18412;DHT22;27097;51.738;19.472;2023-05-07T13:26:45;21.10;74.60
18412;DHT22;27097;51.738;19.472;2023-05-07T13:29:12;21.10;75.20
18412;DHT22;27097;51.738;19.472;2023-05-07T13:31:39;21.10;75.00
18412;DHT22;27097;51.738;19.472;2023-05-07T13:34:08;21.10;74.80
18412;DHT22;27097;51.738;19.472;2023-05-07T13:36:35;21.10;75.00
18412;DHT22;27097;51.738;19.472;2023-05-07T13:39:02;21.10;74.70
18412;DHT22;27097;51.738;19.472;2023-05-07T13:41:29;21.10;75.30
18412;DHT22;27097;51.738;19.472;2023-05-07T13:43:57;21.10;74.90
18412;DHT22;27097;51.738;19.472;2023-05-07T13:46:24;21.10;74.50
18412;DHT22;27097;51.738;19.472;2023-05-07T13:48:51;21.10;74.60
18412;DHT22;27097;51.738;19.472;2023-05-07T13:51:18;21.10;74.60
18412;DHT22;27097;51.738;19.472;2023-05-07T13:53:45;21.10;74.50
18412;DHT22;27097;51.738;19.472;2023-05-07T13:56:12;21.10;74.30
18412;DHT22;27097;51.738;19.472;2023-05-07T13:58:39;21.10;74.20
18412;DHT22;27097;51.738;19.472;2023-05-07T14:01:08;21.10;73.90
18412;DHT22;27097;51.738;19.472;2023-05-07T14:03:35;21.10;74.00
18412;DHT22;27097;51.738;19.472;2023-05-07T14:06:03;21.10;74.20
18412;DHT22;27097;51.738;19.472;2023-05-07T14:08:30;21.10;74.10
18412;DHT22;27097;51.738;19.472;2023-05-07T14:10:57;21.10;74.00
18412;DHT22;27097;51.738;19.472;2023-05-07T14:13:24;21.10;73.80
18412;DHT22;27097;51.738;19.472;2023-05-07T14:15:51;21.10;73.70
18412;DHT22;27097;51.738;19.472;2023-05-07T14:18:19;21.10;73.70
18412;DHT22;27097;51.738;19.472;2023-05-07T14:20:46;21.10;73.70
18412;DHT22;27097;51.738;19.472;2023-05-07T14:23:14;21.10;73.60
18412;DHT22;27097;51.738;19.472;2023-05-07T14:25:42;21.10;73.50
18412;DHT22;27097;51.738;19.472;2023-05-07T14:28:10;21.10;73.20
18412;DHT22;27097;51.738;19.472;2023-05-07T14:30:37;21.10;73.30
18412;DHT22;27097;51.738;19.472;2023-05-07T14:33:04;21.10;73.40
18412;DHT22;27097;51.738;19.472;2023-05-07T14:35:32;21.10;73.30
18412;DHT22;27097;51.738;19.472;2023-05-07T14:37:59;21.10;73.50
18412;DHT22;27097;51.738;19.472;2023-05-07T14:40:26;21.10;73.00
18412;DHT22;27097;51.738;19.472;2023-05-07T14:42:53;21.10;73.50
18412;DHT22;27097;51.738;19.472;2023-05-07T14:45:20;21.10;73.40
18412;DHT22;27097;51.738;19.472;2023-05-07T14:47:47;21.10;72.10
18412;DHT22;27097;51.738;19.472;2023-05-07T14:50:16;21.00;72.60
18412;DHT22;27097;51.738;19.472;2023-05-07T14:52:45;21.00;72.80
18412;DHT22;27097;51.738;19.472;2023-05-07T14:55:12;21.00;73.40
18412;DHT22;27097;51.738;19.472;2023-05-07T14:57:51;21.10;73.70
18412;DHT22;27097;51.738;19.472;2023-05-07T15:00:21;21.10;73.20
18412;DHT22;27097;51.738;19.472;2023-05-07T15:03:05;21.10;73.10
18412;DHT22;27097;51.738;19.472;2023-05-07T15:05:32;21.10;72.50
18412;DHT22;27097;51.738;19.472;2023-05-07T15:08:00;21.10;72.60
18412;DHT22;27097;51.738;19.472;2023-05-07T15:10:27;21.10;73.20
18412;DHT22;27097;51.738;19.472;2023-05-07T15:12:54;21.10;73.00
18412;DHT22;27097;51.738;19.472;2023-05-07T15:15:21;21.20;73.40
18412;DHT22;27097;51.738;19.472;2023-05-07T15:17:48;21.20;74.50
18412;DHT22;27097;51.738;19.472;2023-05-07T15:20:15;21.20;74.30
18412;DHT22;27097;51.738;19.472;2023-05-07T15:22:43;21.20;74.10
18412;DHT22;27097;51.738;19.472;2023-05-07T15:25:12;21.20;74.10
18412;DHT22;27097;51.738;19.472;2023-05-07T15:27:39;21.10;75.60
18412;DHT22;27097;51.738;19.472;2023-05-07T15:30:08;21.10;74.50
18412;DHT22;27097;51.738;19.472;2023-05-07T15:32:36;21.10;74.50
18412;DHT22;27097;51.738;19.472;2023-05-07T15:38:05;21.10;74.00
18412;DHT22;27097;51.738;19.472;2023-05-07T15:40:38;21.10;75.60
18412;DHT22;27097;51.738;19.472;2023-05-07T15:43:10;21.10;75.40
18412;DHT22;27097;51.738;19.472;2023-05-07T15:45:51;21.10;75.20
18412;DHT22;27097;51.738;19.472;2023-05-07T15:48:24;21.10;75.00
18412;DHT22;27097;51.738;19.472;2023-05-07T15:51:04;21.10;74.90
18412;DHT22;27097;51.738;19.472;2023-05-07T15:53:33;21.10;74.70
18412;DHT22;27097;51.738;19.472;2023-05-07T15:56:03;21.10;74.80
18412;DHT22;27097;51.738;19.472;2023-05-07T15:59:13;21.10;74.90
18412;DHT22;27097;51.738;19.472;2023-05-07T16:04:34;21.10;74.50
18412;DHT22;27097;51.738;19.472;2023-05-07T16:07:03;21.10;74.10
18412;DHT22;27097;51.738;19.472;2023-05-07T16:09:30;21.20;74.10
18412;DHT22;27097;51.738;19.472;2023-05-07T16:12:00;21.20;74.00
18412;DHT22;27097;51.738;19.472;2023-05-07T16:17:16;21.20;74.90
18412;DHT22;27097;51.738;19.472;2023-05-07T16:19:46;21.10;74.60